Time;durP1;ratioP1;P1;durP2;ratioP2;P2;SDS_P1;SDS_P2;PMS_P1;PMS_P2;Temp;Humidity;BMP_temperature;BMP_pressure;BME280_temperature;BME280_humidity;BME280_pressure;Samples;Min_cycle;Max_cycle;Signal;HPM_P1;HPM_P2
2022/03/28 00:00:30;;;;;;;8.90;4.83;;;7.50;99.90;;;8.41;100.00;99092.78;5016304;28;20845;-71
2022/03/28 00:03:01;;;;;;;8.63;5.60;;;7.50;99.90;;;8.39;100.00;99086.06;5014514;28;20474;-72
2022/03/28 00:05:30;;;;;;;13.27;5.40;;;7.50;99.90;;;8.38;100.00;99092.25;5031786;28;20470;-72
2022/03/28 00:08:00;;;;;;;8.63;5.10;;;7.40;99.90;;;8.32;100.00;99098.88;5020498;28;20548;-72
2022/03/28 00:10:30;;;;;;;10.33;5.67;;;7.40;99.90;;;8.28;100.00;99097.53;5016494;28;21135;-71
2022/03/28 00:13:01;;;;;;;9.40;6.20;;;7.40;99.90;;;8.31;100.00;99088.59;5016889;28;20508;-72
2022/03/28 00:15:30;;;;;;;16.43;6.27;;;7.40;99.90;;;8.29;100.00;99087.91;5014786;28;20500;-71
2022/03/28 00:18:00;;;;;;;8.10;4.60;;;7.30;99.90;;;8.27;100.00;99082.81;5013456;28;20523;-71
2022/03/28 00:20:29;;;;;;;13.93;6.43;;;7.30;99.90;;;8.25;100.00;99082.16;5013544;28;21085;-72
2022/03/28 00:23:00;;;;;;;7.33;5.33;;;7.30;99.90;;;8.19;100.00;99077.50;5018907;28;20466;-72
2022/03/28 00:25:31;;;;;;;8.13;5.30;;;7.20;99.90;;;8.19;100.00;99081.91;5017744;28;20452;-72
2022/03/28 00:28:02;;;;;;;10.20;5.50;;;7.20;99.90;;;8.14;100.00;99074.53;5022385;28;20584;-72
2022/03/28 00:30:31;;;;;;;7.93;5.30;;;7.20;99.90;;;8.11;100.00;99074.84;5024567;28;20451;-72
2022/03/28 00:33:01;;;;;;;9.80;5.20;;;7.20;99.90;;;8.07;100.00;99069.09;5019052;28;21011;-71
2022/03/28 00:35:30;;;;;;;11.30;5.40;;;7.20;99.90;;;8.07;100.00;99070.88;5020057;28;20523;-71
2022/03/28 00:38:00;;;;;;;11.23;5.80;;;7.10;99.90;;;8.03;100.00;99069.53;5020321;28;20509;-75
2022/03/28 00:40:31;;;;;;;10.30;6.23;;;7.20;99.90;;;7.96;100.00;99066.69;5020125;28;20469;-72
2022/03/28 00:43:05;;;;;;;8.67;5.10;;;7.20;99.90;;;7.90;100.00;99069.03;5023438;28;20481;-71
2022/03/28 00:45:37;;;;;;;7.80;5.20;;;7.10;99.90;;;7.87;100.00;99067.56;5024186;28;20505;-72
2022/03/28 00:48:11;;;;;;;10.30;6.00;;;7.10;99.90;;;7.86;100.00;99054.66;5023858;28;20558;-71
2022/03/28 00:50:41;;;;;;;14.87;5.70;;;7.00;99.90;;;7.83;100.00;99055.78;5023507;28;20531;-72
2022/03/28 00:53:14;;;;;;;10.40;6.40;;;6.90;99.90;;;7.81;100.00;99051.69;5021816;28;20990;-72
2022/03/28 00:55:43;;;;;;;9.40;5.67;;;6.90;99.90;;;7.79;100.00;99054.44;5021648;28;20503;-72
2022/03/28 00:58:13;;;;;;;11.10;6.10;;;6.90;99.90;;;7.77;100.00;99047.75;5019989;28;20467;-71
2022/03/28 01:00:42;;;;;;;9.67;5.97;;;6.90;99.90;;;7.72;100.00;99047.34;5022912;28;20978;-72
2022/03/28 01:03:11;;;;;;;12.17;6.40;;;6.80;99.90;;;7.63;100.00;99043.00;5022945;28;20499;-72
2022/03/28 01:05:42;;;;;;;10.03;5.50;;;6.80;99.90;;;7.53;100.00;99051.66;5022584;28;20451;-72
2022/03/28 01:08:14;;;;;;;12.83;5.87;;;6.80;99.90;;;7.54;100.00;99050.69;5022854;28;21011;-71
2022/03/28 01:10:50;;;;;;;11.20;6.00;;;6.70;99.90;;;7.52;100.00;99042.22;5023153;28;20872;-72
2022/03/28 01:13:21;;;;;;;9.17;5.73;;;6.70;99.90;;;7.55;100.00;99036.72;5023028;28;20450;-72
2022/03/28 01:15:50;;;;;;;13.17;6.50;;;6.60;99.90;;;7.59;100.00;99037.28;5022419;28;21021;-72
2022/03/28 01:18:19;;;;;;;8.90;5.57;;;6.60;99.90;;;7.53;100.00;99033.44;5024788;28;20463;-72
2022/03/28 01:20:48;;;;;;;10.97;6.80;;;6.50;99.90;;;7.50;100.00;99027.69;5023411;28;20462;-72
2022/03/28 01:23:20;;;;;;;10.20;6.30;;;6.60;99.90;;;7.49;100.00;99031.28;5023021;28;20458;-72
2022/03/28 01:25:51;;;;;;;8.50;6.10;;;6.50;99.90;;;7.45;100.00;99030.75;5023830;28;20485;-72
2022/03/28 01:28:22;;;;;;;10.00;6.67;;;6.50;99.90;;;7.45;100.00;99022.13;5022502;28;20908;-72
2022/03/28 01:30:54;;;;;;;11.93;6.20;;;6.50;99.90;;;7.41;100.00;99028.56;5023175;28;21022;-72
2022/03/28 01:33:25;;;;;;;10.50;6.43;;;6.50;99.90;;;7.37;100.00;99020.22;5022295;28;20454;-72
2022/03/28 01:35:54;;;;;;;11.07;5.73;;;6.50;99.90;;;7.34;100.00;99014.50;5022695;28;20461;-72
2022/03/28 01:38:26;;;;;;;11.27;6.00;;;6.50;99.90;;;7.33;100.00;99021.47;5021707;28;20532;-72
2022/03/28 01:40:55;;;;;;;9.70;5.77;;;6.40;99.90;;;7.31;100.00;99023.41;5022234;28;20492;-72
2022/03/28 01:43:26;;;;;;;8.33;5.13;;;6.40;99.90;;;7.24;100.00;99011.94;5022307;28;20451;-72
2022/03/28 01:45:55;;;;;;;15.30;6.40;;;6.40;99.90;;;7.21;100.00;99017.41;5023266;28;20465;-72
2022/03/28 01:48:26;;;;;;;10.23;5.60;;;6.40;99.90;;;7.21;100.00;99012.22;5022743;28;20477;-72
2022/03/28 01:50:56;;;;;;;10.73;6.27;;;6.20;99.90;;;7.16;100.00;99009.22;5022718;28;20479;-72
2022/03/28 01:53:27;;;;;;;10.97;5.90;;;6.20;99.90;;;7.15;100.00;98998.97;5022083;28;20457;-72
2022/03/28 01:55:55;;;;;;;9.70;6.20;;;6.20;99.90;;;7.11;100.00;99003.63;5021231;28;20497;-72
2022/03/28 01:58:25;;;;;;;10.67;6.00;;;6.20;99.90;;;7.06;100.00;99003.22;5021244;28;21018;-72
2022/03/28 02:00:55;;;;;;;10.30;6.27;;;6.10;99.90;;;7.06;100.00;99008.41;5021462;28;20439;-72
2022/03/28 02:03:24;;;;;;;13.90;5.33;;;6.10;99.90;;;7.08;100.00;99002.09;5022202;28;20470;-72
2022/03/28 02:05:55;;;;;;;10.10;5.73;;;6.10;99.90;;;7.03;100.00;99003.50;5021755;28;20461;-72
2022/03/28 02:08:27;;;;;;;12.00;5.90;;;6.20;99.90;;;7.00;100.00;99009.81;5022933;28;20847;-72
2022/03/28 02:10:57;;;;;;;9.17;5.60;;;6.10;99.90;;;6.98;100.00;99000.50;5021881;28;20456;-72
2022/03/28 02:13:27;;;;;;;8.87;5.73;;;6.00;99.90;;;6.95;100.00;99008.56;5020383;28;20461;-72
2022/03/28 02:15:58;;;;;;;7.97;6.17;;;6.00;99.90;;;6.88;100.00;98999.69;5022270;28;20497;-71
2022/03/28 02:18:31;;;;;;;8.30;5.87;;;6.00;99.90;;;6.88;100.00;98991.91;5020565;28;20453;-71
2022/03/28 02:21:00;;;;;;;11.67;5.27;;;6.00;99.90;;;6.85;100.00;98994.78;5021759;28;20863;-72
2022/03/28 02:23:31;;;;;;;11.00;5.63;;;6.00;99.90;;;6.84;100.00;98990.53;5021218;28;20456;-72
2022/03/28 02:26:02;;;;;;;11.07;7.10;;;5.90;99.90;;;6.79;100.00;98988.38;5021125;28;20438;-72
2022/03/28 02:28:32;;;;;;;15.83;6.40;;;5.80;99.90;;;6.76;100.00;98985.22;5021204;28;20507;-72
2022/03/28 02:31:03;;;;;;;10.80;5.60;;;5.90;99.90;;;6.69;100.00;98976.34;5021009;28;20940;-72
2022/03/28 02:33:33;;;;;;;8.40;5.70;;;5.90;99.90;;;6.63;100.00;98984.72;5019922;28;20448;-72
2022/03/28 02:36:04;;;;;;;12.73;6.27;;;5.90;99.90;;;6.59;100.00;98978.97;5021744;28;20981;-72
2022/03/28 02:38:35;;;;;;;9.47;5.90;;;5.80;99.90;;;6.57;100.00;98976.50;5023395;28;20528;-72
2022/03/28 02:41:06;;;;;;;12.57;6.43;;;5.70;99.90;;;6.58;100.00;98977.31;5020820;28;20426;-72
2022/03/28 02:43:37;;;;;;;11.10;6.50;;;5.70;99.90;;;6.56;100.00;98976.63;5020814;28;20443;-72
2022/03/28 02:46:07;;;;;;;11.17;6.70;;;5.50;99.90;;;6.58;100.00;98977.31;5020625;28;20537;-72
2022/03/28 02:48:37;;;;;;;11.80;5.83;;;5.60;99.90;;;6.56;100.00;98967.06;5021240;28;20799;-72
2022/03/28 02:51:07;;;;;;;8.17;5.33;;;5.50;99.90;;;6.50;100.00;98959.81;5021021;28;20455;-72
2022/03/28 02:53:38;;;;;;;14.30;7.00;;;5.60;99.90;;;6.51;100.00;98964.06;5020280;28;20545;-72
2022/03/28 02:56:08;;;;;;;11.53;6.50;;;5.60;99.90;;;6.51;100.00;98961.47;5021596;28;20860;-72
2022/03/28 02:58:36;;;;;;;9.67;6.60;;;5.60;99.90;;;6.48;100.00;98953.97;5020658;28;20453;-72
2022/03/28 03:01:08;;;;;;;10.53;6.37;;;5.50;99.90;;;6.50;100.00;98953.81;5021886;28;20808;-72
2022/03/28 03:03:38;;;;;;;12.23;6.53;;;5.60;99.90;;;6.50;100.00;98944.22;5021872;28;20443;-72
2022/03/28 03:06:09;;;;;;;10.37;6.40;;;5.50;99.90;;;6.52;100.00;98938.91;5019713;28;20502;-72
2022/03/28 03:08:39;;;;;;;13.70;7.50;;;5.60;99.90;;;6.52;100.00;98941.50;5020616;28;21092;-72
2022/03/28 03:11:09;;;;;;;10.00;6.10;;;5.60;99.90;;;6.51;100.00;98945.06;5021114;28;20455;-72
2022/03/28 03:13:39;;;;;;;12.20;6.77;;;5.60;99.90;;;6.46;100.00;98942.88;5020141;28;20454;-72
2022/03/28 03:16:09;;;;;;;9.20;5.73;;;5.50;99.90;;;6.44;100.00;98944.78;5022129;28;20457;-71
2022/03/28 03:18:38;;;;;;;11.60;5.90;;;5.60;99.90;;;6.44;100.00;98938.78;5019165;28;20976;-72
2022/03/28 03:21:08;;;;;;;12.40;6.67;;;5.50;99.90;;;6.45;100.00;98941.25;5021750;28;21043;-72
2022/03/28 03:23:40;;;;;;;10.83;6.77;;;5.50;99.90;;;6.45;100.00;98946.44;5020042;28;20506;-72
2022/03/28 03:26:09;;;;;;;10.30;5.90;;;5.50;99.90;;;6.43;100.00;98940.56;5021429;28;20473;-72
2022/03/28 03:28:39;;;;;;;12.13;7.03;;;5.40;99.90;;;6.42;100.00;98941.50;5021825;28;20489;-72
2022/03/28 03:31:10;;;;;;;11.20;6.20;;;5.40;99.90;;;6.44;100.00;98934.41;5018183;28;20903;-72
2022/03/28 03:33:40;;;;;;;10.23;6.40;;;5.40;99.90;;;6.42;100.00;98940.69;5019891;28;20810;-72
2022/03/28 03:36:10;;;;;;;9.50;5.67;;;5.50;99.90;;;6.33;100.00;98938.91;5021297;28;20523;-72
2022/03/28 03:38:41;;;;;;;12.17;6.30;;;5.40;99.90;;;6.31;100.00;98938.25;5019833;28;20480;-72
2022/03/28 03:41:11;;;;;;;8.30;6.20;;;5.30;99.90;;;6.29;100.00;98940.97;5019614;28;20643;-72
2022/03/28 03:43:41;;;;;;;9.33;5.30;;;5.40;99.90;;;6.25;100.00;98939.59;5018831;28;20528;-72
2022/03/28 03:46:11;;;;;;;11.33;6.70;;;5.30;99.90;;;6.25;100.00;98939.59;5020097;28;20957;-72
2022/03/28 03:48:40;;;;;;;14.93;7.43;;;5.30;99.90;;;6.21;100.00;98943.47;5019871;28;20522;-72
2022/03/28 03:51:10;;;;;;;14.13;7.83;;;5.20;99.90;;;6.19;100.00;98944.53;5021117;28;20512;-72
2022/03/28 03:53:41;;;;;;;10.17;5.90;;;5.20;99.90;;;6.15;100.00;98943.97;5021677;28;20442;-72
2022/03/28 03:56:11;;;;;;;10.30;6.53;;;5.10;99.90;;;6.12;100.00;98940.84;5019594;28;20457;-72
2022/03/28 03:58:41;;;;;;;13.60;7.00;;;5.10;99.90;;;6.13;100.00;98938.13;5017690;28;20469;-72
2022/03/28 04:01:10;;;;;;;11.03;6.10;;;5.10;99.90;;;6.13;100.00;98932.91;5022112;28;20489;-72
2022/03/28 04:03:39;;;;;;;10.93;6.80;;;5.10;99.90;;;6.10;100.00;98934.97;5023997;28;20468;-72
2022/03/28 04:06:10;;;;;;;11.00;6.73;;;5.10;99.90;;;6.10;100.00;98933.19;5024962;28;20500;-72
2022/03/28 04:08:41;;;;;;;10.10;6.27;;;5.10;99.90;;;6.11;100.00;98936.63;5024252;28;20485;-72
2022/03/28 04:11:11;;;;;;;9.50;6.10;;;5.10;99.90;;;6.08;100.00;98928.13;5024906;28;20442;-72
2022/03/28 04:13:41;;;;;;;10.80;6.70;;;5.10;99.90;;;6.05;100.00;98935.38;5022674;28;21044;-72
2022/03/28 04:16:11;;;;;;;10.30;6.43;;;5.10;99.90;;;6.01;100.00;98929.63;5025083;28;20514;-72
2022/03/28 04:18:40;;;;;;;10.77;6.97;;;5.10;99.90;;;5.95;100.00;98931.97;5021618;28;20541;-71
2022/03/28 04:21:10;;;;;;;10.80;7.20;;;5.10;99.90;;;5.94;100.00;98930.31;5023062;28;20469;-72
2022/03/28 04:23:41;;;;;;;10.93;6.53;;;5.10;99.90;;;5.89;100.00;98924.72;5023847;28;20462;-72
2022/03/28 04:26:10;;;;;;;12.77;7.40;;;5.10;99.90;;;5.84;100.00;98922.50;5023643;28;20961;-72
2022/03/28 04:28:39;;;;;;;9.93;6.50;;;5.10;99.90;;;5.79;100.00;98924.69;5024076;28;20540;-72
2022/03/28 04:31:09;;;;;;;11.50;6.53;;;5.00;99.90;;;5.74;100.00;98919.06;5020969;28;21017;-72
2022/03/28 04:33:39;;;;;;;11.07;6.73;;;5.00;99.90;;;5.69;100.00;98925.63;5024752;28;20612;-72
2022/03/28 04:36:08;;;;;;;10.60;6.70;;;4.90;99.90;;;5.72;100.00;98927.94;5024420;28;20458;-72
2022/03/28 04:38:37;;;;;;;12.43;6.43;;;4.90;99.90;;;5.73;100.00;98925.19;5023015;28;20533;-72
2022/03/28 04:41:08;;;;;;;9.33;6.60;;;4.90;99.90;;;5.74;100.00;98929.44;5024751;28;20445;-72
2022/03/28 04:43:38;;;;;;;11.73;6.40;;;4.80;99.90;;;5.75;100.00;98917.31;5021717;28;20953;-72
2022/03/28 04:46:08;;;;;;;12.60;7.10;;;4.80;99.90;;;5.72;100.00;98915.81;5023223;28;20434;-72
2022/03/28 04:48:37;;;;;;;9.70;6.07;;;4.80;99.90;;;5.70;100.00;98922.88;5023083;28;20515;-71
2022/03/28 04:51:08;;;;;;;11.90;6.90;;;4.80;99.90;;;5.70;100.00;98919.47;5023851;28;20446;-72
2022/03/28 04:53:37;;;;;;;14.03;7.20;;;4.90;99.90;;;5.68;100.00;98908.41;5023890;28;20822;-72
2022/03/28 04:56:08;;;;;;;10.63;6.97;;;4.80;99.90;;;5.65;100.00;98919.06;5023213;28;20454;-72
2022/03/28 04:58:39;;;;;;;12.37;7.10;;;4.70;99.90;;;5.65;100.00;98912.09;5022957;28;20526;-72
2022/03/28 05:01:10;;;;;;;11.17;7.30;;;4.70;99.90;;;5.64;100.00;98907.03;5024047;28;20781;-72
2022/03/28 05:03:39;;;;;;;16.13;7.87;;;4.80;99.90;;;5.62;100.00;98912.38;5021755;28;21177;-72
2022/03/28 05:06:10;;;;;;;14.00;6.90;;;4.70;99.90;;;5.62;100.00;98919.34;5023549;28;20446;-71
2022/03/28 05:08:40;;;;;;;14.73;6.40;;;4.70;99.90;;;5.62;100.00;98914.16;5022284;28;20464;-72
2022/03/28 05:11:12;;;;;;;10.07;6.60;;;4.60;99.90;;;5.61;100.00;98915.09;5022475;28;20512;-72
2022/03/28 05:13:43;;;;;;;13.30;7.20;;;4.60;99.90;;;5.61;100.00;98909.91;5023117;28;20453;-72
2022/03/28 05:16:13;;;;;;;13.03;7.07;;;4.60;99.90;;;5.61;100.00;98907.31;5023002;28;20445;-72
2022/03/28 05:18:43;;;;;;;12.93;7.37;;;4.60;99.90;;;5.61;100.00;98902.13;5023980;28;20465;-72
2022/03/28 05:21:14;;;;;;;15.27;7.20;;;4.60;99.90;;;5.59;100.00;98905.66;5024195;28;20941;-72
2022/03/28 05:23:46;;;;;;;15.20;6.60;;;4.60;99.90;;;5.57;100.00;98904.16;5023497;28;20450;-72
2022/03/28 05:26:16;;;;;;;13.67;6.67;;;4.70;99.90;;;5.53;100.00;98905.38;5023547;28;20858;-72
2022/03/28 05:28:46;;;;;;;10.70;6.80;;;4.50;99.90;;;5.53;100.00;98915.75;5023372;28;20462;-72
2022/03/28 05:31:15;;;;;;;12.87;7.20;;;4.50;99.90;;;5.53;100.00;98910.56;5022756;28;20963;-72
2022/03/28 05:33:47;;;;;;;10.90;7.60;;;4.50;99.90;;;5.52;100.00;98907.16;5023407;28;20875;-72
2022/03/28 05:36:18;;;;;;;10.93;6.23;;;4.60;99.90;;;5.52;100.00;98904.56;5022025;28;20816;-72
2022/03/28 05:38:48;;;;;;;13.47;7.33;;;4.50;99.90;;;5.54;100.00;98904.44;5022817;28;20906;-72
2022/03/28 05:41:19;;;;;;;14.10;7.53;;;4.50;99.90;;;5.54;100.00;98900.06;5019750;28;20445;-71
2022/03/28 05:43:50;;;;;;;12.43;6.20;;;4.60;99.90;;;5.53;100.00;98903.63;5022628;28;20462;-72
2022/03/28 05:46:20;;;;;;;10.07;6.33;;;4.60;99.90;;;5.53;100.00;98905.38;5020548;28;20466;-71
2022/03/28 05:48:54;;;;;;;12.37;7.53;;;4.60;99.90;;;5.53;100.00;98898.44;5021889;28;20496;-72
2022/03/28 05:51:24;;;;;;;9.60;6.23;;;4.50;99.90;;;5.52;100.00;98899.38;5020340;28;20495;-72
2022/03/28 05:53:54;;;;;;;14.70;7.50;;;4.50;99.90;;;5.53;100.00;98900.19;5021701;28;20454;-72
2022/03/28 05:56:27;;;;;;;12.87;6.43;;;4.60;99.90;;;5.52;100.00;98901.97;5022100;28;20450;-72
2022/03/28 05:58:57;;;;;;;12.00;6.97;;;4.60;99.90;;;5.52;100.00;98894.19;5021398;28;20452;-72
2022/03/28 06:01:28;;;;;;;12.30;7.17;;;4.60;99.90;;;5.54;100.00;98897.47;5019327;28;20482;-71
2022/03/28 06:03:59;;;;;;;10.90;7.60;;;4.60;99.90;;;5.54;100.00;98892.28;5019888;28;20463;-72
2022/03/28 06:06:28;;;;;;;11.57;6.57;;;4.60;99.90;;;5.54;100.00;98902.66;5020231;28;20545;-71
2022/03/28 06:08:57;;;;;;;10.20;6.83;;;4.70;99.90;;;5.55;100.00;98898.31;5020864;28;20557;-72
2022/03/28 06:11:29;;;;;;;12.40;7.07;;;4.70;99.90;;;5.54;100.00;98900.06;5016038;28;21020;-71
2022/03/28 06:14:01;;;;;;;17.63;7.50;;;4.70;99.90;;;5.54;100.00;98899.25;5017552;28;20987;-72
2022/03/28 06:16:31;;;;;;;15.33;7.23;;;4.70;99.90;;;5.56;100.00;98908.53;5022893;28;20533;-72
2022/03/28 06:19:02;;;;;;;12.20;7.13;;;4.70;99.90;;;5.62;100.00;98903.78;5020222;28;20470;-71
2022/03/28 06:21:32;;;;;;;13.10;7.13;;;4.70;99.90;;;5.67;100.00;98904.16;5017243;28;20476;-72
2022/03/28 06:24:08;;;;;;;12.97;7.57;;;4.70;99.90;;;5.71;100.00;98908.13;5016126;28;25778;-71
2022/03/28 06:26:39;;;;;;;16.60;6.50;;;4.80;99.90;;;5.76;100.00;98909.38;5016965;28;20514;-71
2022/03/28 06:29:10;;;;;;;12.53;7.20;;;4.80;99.90;;;5.80;100.00;98907.31;5015237;28;20462;-71
2022/03/28 06:31:40;;;;;;;11.00;7.10;;;4.90;99.90;;;5.81;100.00;98899.41;5016258;28;20502;-71
2022/03/28 06:34:15;;;;;;;13.37;7.83;;;4.90;99.90;;;5.83;100.00;98902.69;5017354;28;20485;-72
2022/03/28 06:36:45;;;;;;;22.70;12.13;;;4.90;99.90;;;5.84;100.00;98903.50;5015656;28;20463;-75
2022/03/28 06:39:16;;;;;;;15.23;7.40;;;5.00;99.90;;;5.86;100.00;98901.63;5017457;28;20580;-71
2022/03/28 06:41:48;;;;;;;11.00;6.80;;;5.00;99.90;;;5.86;100.00;98893.84;5018018;28;20468;-72
2022/03/28 06:44:18;;;;;;;12.90;6.73;;;5.00;99.90;;;5.88;100.00;98900.53;5018992;28;20459;-71
2022/03/28 06:46:48;;;;;;;14.00;7.53;;;5.00;99.90;;;5.90;100.00;98898.63;5020971;28;20840;-72
2022/03/28 06:49:17;;;;;;;12.27;7.53;;;5.00;99.90;;;5.94;100.00;98899.97;5021456;28;20473;-71
2022/03/28 06:51:46;;;;;;;14.60;7.47;;;5.10;99.90;;;5.99;100.00;98891.78;5021704;28;21111;-72
2022/03/28 06:54:19;;;;;;;13.40;7.30;;;5.10;99.90;;;6.03;100.00;98900.97;5021427;28;20454;-71
2022/03/28 06:56:50;;;;;;;13.10;8.03;;;5.10;99.90;;;6.09;100.00;98903.00;5020097;28;20444;-72
2022/03/28 06:59:23;;;;;;;14.10;7.80;;;5.20;99.90;;;6.11;100.00;98890.69;5020312;28;20448;-71
2022/03/28 07:01:54;;;;;;;21.57;7.90;;;5.20;99.90;;;6.15;100.00;98889.44;5019699;28;20466;-72
2022/03/28 07:04:23;;;;;;;11.40;7.20;;;5.20;99.90;;;6.19;100.00;98892.59;5019776;28;20464;-72
2022/03/28 07:06:53;;;;;;;11.30;6.90;;;5.30;99.90;;;6.24;100.00;98887.81;5017808;28;20497;-71
2022/03/28 07:09:24;;;;;;;11.80;7.37;;;5.30;99.90;;;6.30;100.00;98880.28;5012377;28;21150;-71
2022/03/28 07:11:58;;;;;;;68.73;29.37;;;5.40;99.90;;;6.34;100.00;98886.84;5016895;28;20508;-72
2022/03/28 07:14:27;;;;;;;19.60;9.33;;;5.50;99.90;;;6.39;100.00;98889.81;5014088;28;20458;-71
2022/03/28 07:16:57;;;;;;;15.50;7.23;;;5.50;99.90;;;6.45;100.00;98889.28;5013732;28;20882;-72
2022/03/28 07:19:27;;;;;;;16.47;8.30;;;5.60;99.90;;;6.47;100.00;98879.56;5015240;28;20467;-72
2022/03/28 07:21:58;;;;;;;12.60;7.70;;;5.50;99.90;;;6.53;100.00;98876.41;5018324;28;20481;-72
2022/03/28 07:24:29;;;;;;;12.90;7.53;;;5.60;99.90;;;6.60;100.00;98876.66;5016207;28;20463;-72
2022/03/28 07:27:00;;;;;;;13.03;8.17;;;5.70;99.90;;;6.66;100.00;98875.28;5016730;28;21055;-72
2022/03/28 07:29:29;;;;;;;12.50;8.03;;;5.70;99.90;;;6.71;100.00;98873.06;5010079;28;20667;-72
2022/03/28 07:34:32;;;;;;;16.70;7.50;;;5.80;99.90;;;6.81;100.00;98864.28;4972690;28;20487;-72
2022/03/28 07:37:06;;;;;;;19.30;8.53;;;5.90;99.90;;;6.87;100.00;98855.88;4978533;28;20473;-72
2022/03/28 07:39:38;;;;;;;15.93;8.37;;;6.00;99.90;;;6.94;100.00;98854.34;4974710;28;20482;-72
2022/03/28 07:42:11;;;;;;;12.77;8.10;;;6.00;99.90;;;7.00;100.00;98859.00;4976568;28;20501;-72
2022/03/28 07:44:41;;;;;;;17.50;8.57;;;6.20;99.90;;;7.06;100.00;98849.78;4974945;28;20496;-72
2022/03/28 07:47:11;;;;;;;14.53;7.60;;;6.20;99.90;;;7.10;100.00;98853.75;4977543;28;20567;-81
2022/03/28 07:49:41;;;;;;;31.77;15.43;;;6.30;99.90;;;7.15;100.00;98851.50;4975998;28;20467;-72
2022/03/28 07:52:12;;;;;;;25.90;12.20;;;6.40;99.90;;;7.23;100.00;98845.59;4977753;28;20600;-72
2022/03/28 07:54:42;;;;;;;15.63;8.60;;;6.40;99.90;;;7.29;100.00;98842.44;4979091;28;20467;-73
2022/03/28 07:57:14;;;;;;;13.37;8.10;;;6.40;99.90;;;7.35;100.00;98842.66;4977710;28;20471;-71
2022/03/28 07:59:45;;;;;;;10.83;7.53;;;6.50;99.90;;;7.42;100.00;98841.09;4977257;28;20490;-72
2022/03/28 08:02:16;;;;;;;13.53;8.30;;;6.50;99.90;;;7.49;100.00;98836.13;4978364;28;20483;-72
2022/03/28 08:04:48;;;;;;;15.97;8.30;;;6.60;99.90;;;7.56;100.00;98830.19;4980195;28;20550;-72
2022/03/28 08:07:19;;;;;;;17.57;8.70;;;6.70;99.90;;;7.64;100.00;98826.00;4977194;28;20466;-72
2022/03/28 08:09:49;;;;;;;20.57;9.27;;;6.80;99.90;;;7.72;100.00;98826.06;4977922;28;20474;-72
2022/03/28 08:12:20;;;;;;;16.53;7.97;;;6.90;99.90;;;7.79;100.00;98825.31;4978000;28;20498;-72
2022/03/28 08:14:51;;;;;;;12.03;8.27;;;7.00;99.90;;;7.86;100.00;98815.13;4977919;28;20460;-72
2022/03/28 08:17:22;;;;;;;15.90;9.07;;;7.00;99.90;;;7.96;100.00;98821.06;4977868;28;20460;-72
2022/03/28 08:19:52;;;;;;;14.37;8.77;;;7.10;99.90;;;8.05;100.00;98817.56;4977449;28;20488;-72
2022/03/28 08:22:21;;;;;;;14.60;8.83;;;7.20;99.90;;;8.12;100.00;98810.78;4977911;28;20573;-72
2022/03/28 08:24:51;;;;;;;11.40;7.43;;;7.30;99.90;;;8.21;100.00;98799.44;4977795;28;20898;-72
2022/03/28 08:27:23;;;;;;;13.63;8.03;;;7.40;99.90;;;8.30;100.00;98802.94;4977353;28;20890;-72
2022/03/28 08:29:53;;;;;;;12.23;8.37;;;7.50;99.90;;;8.37;100.00;98799.56;4979541;28;20452;-70
2022/03/28 08:32:22;;;;;;;13.47;8.87;;;7.60;99.90;;;8.46;100.00;98798.66;4976211;28;20507;-70
2022/03/28 08:34:51;;;;;;;15.37;8.67;;;7.70;99.90;;;8.56;100.00;98793.31;4977161;28;20496;-70
2022/03/28 08:37:21;;;;;;;56.43;29.17;;;7.80;99.90;;;8.68;100.00;98786.84;4976345;28;20993;-70
2022/03/28 08:39:54;;;;;;;44.93;20.70;;;7.90;99.90;;;8.75;100.00;98780.03;4973930;28;20510;-72
2022/03/28 09:25:49;;;;;;;10.80;7.10;;;10.10;99.90;;;10.72;100.00;98724.00;5312333;23;20505;-79
2022/03/28 09:28:25;;;;;;;40.93;22.50;;;10.20;99.90;;;10.81;100.00;98718.53;5020071;28;20525;-85
2022/03/28 09:30:55;;;;;;;15.90;9.33;;;10.40;99.90;;;10.92;100.00;98715.53;5007917;28;20493;-76
2022/03/28 09:33:25;;;;;;;14.60;7.33;;;10.50;99.90;;;11.14;100.00;98703.47;5012096;28;20474;-76
2022/03/28 09:35:55;;;;;;;16.07;8.40;;;10.80;99.90;;;11.29;100.00;98696.47;5007137;28;20566;-77
2022/03/28 09:38:24;;;;;;;15.50;8.23;;;10.80;99.90;;;11.41;100.00;98697.69;5001492;28;21086;-76
2022/03/28 09:40:54;;;;;;;11.27;7.47;;;10.90;99.90;;;11.49;100.00;98692.38;5002858;28;20853;-76
2022/03/28 09:43:32;;;;;;;13.50;7.83;;;11.10;99.90;;;11.61;100.00;98684.91;5017201;28;20466;-76
2022/03/28 09:46:07;;;;;;;15.30;8.33;;;11.20;99.90;;;11.70;100.00;98688.28;5011547;28;20465;-76
2022/03/28 09:48:47;;;;;;;11.10;7.27;;;11.30;99.90;;;11.78;100.00;98690.84;5012578;28;20477;-76
2022/03/28 09:51:21;;;;;;;10.40;6.80;;;11.40;99.90;;;11.89;100.00;98682.53;5018339;28;20800;-76
2022/03/28 09:53:51;;;;;;;16.40;7.63;;;11.50;99.90;;;11.99;100.00;98677.84;5011567;28;20494;-76
2022/03/28 09:56:23;;;;;;;17.87;7.33;;;11.70;99.90;;;12.09;100.00;98673.97;5010840;28;20486;-76
2022/03/28 09:58:59;;;;;;;17.30;7.43;;;11.80;99.90;;;12.21;100.00;98671.72;5009981;28;20914;-76
2022/03/28 10:01:35;;;;;;;15.50;7.27;;;11.80;99.90;;;12.34;100.00;98671.88;5004879;28;21156;-76
2022/03/28 10:04:09;;;;;;;18.80;7.60;;;12.00;99.90;;;12.44;100.00;98658.47;5006779;28;20513;-76
2022/03/28 10:06:40;;;;;;;16.00;7.37;;;12.10;99.90;;;12.57;100.00;98658.63;5007651;28;20485;-76
2022/03/28 10:09:11;;;;;;;11.90;6.77;;;12.20;99.90;;;12.71;99.47;98655.16;5009157;28;20485;-76
2022/03/28 10:11:43;;;;;;;17.40;7.73;;;12.30;99.80;;;12.82;97.66;98649.41;5007304;28;20853;-76
2022/03/28 10:14:14;;;;;;;13.43;6.97;;;12.40;99.20;;;12.93;95.99;98641.06;5010068;28;20475;-76
2022/03/28 10:16:45;;;;;;;12.23;7.20;;;12.50;99.00;;;13.07;94.64;98639.38;4994188;28;20879;-76
2022/03/28 10:19:17;;;;;;;11.70;6.23;;;12.70;99.30;;;13.19;94.03;98644.97;5009854;28;20857;-76
2022/03/28 10:21:47;;;;;;;12.33;6.70;;;12.70;99.10;;;13.27;91.47;98639.56;5007120;28;20490;-76
2022/03/28 10:24:25;;;;;;;11.23;6.33;;;12.90;98.40;;;13.43;83.28;98632.22;4998752;28;20486;-76
2022/03/28 10:26:59;;;;;;;13.40;6.60;;;13.20;96.50;;;13.60;82.04;98620.44;4987131;28;20510;-75
2022/03/28 10:29:38;;;;;;;16.53;6.83;;;13.30;96.20;;;13.70;83.46;98621.91;4980352;28;20951;-76
2022/03/28 10:32:14;;;;;;;11.17;6.70;;;13.30;96.60;;;13.75;83.90;98624.75;4996579;28;20927;-76
2022/03/28 10:34:49;;;;;;;10.43;5.83;;;13.30;96.80;;;13.84;80.92;98619.19;4997212;28;21208;-76
2022/03/28 10:37:34;;;;;;;18.67;5.90;;;13.40;95.70;;;13.98;76.02;98610.34;4998528;28;20494;-75
2022/03/28 10:40:26;;;;;;;10.93;6.50;;;13.50;94.10;;;14.03;75.65;98607.13;4998346;28;20479;-76
2022/03/28 10:43:07;;;;;;;12.07;6.30;;;13.60;94.90;;;14.08;76.22;98599.47;4992125;28;20483;-78
2022/03/28 10:45:51;;;;;;;11.50;5.73;;;13.60;94.50;;;14.15;71.87;98600.31;4989672;28;20597;-78
2022/03/28 10:48:39;;;;;;;15.97;6.63;;;13.80;93.70;;;14.25;70.06;98592.88;4987425;28;20486;-78
2022/03/28 10:51:12;;;;;;;16.43;6.37;;;13.80;93.40;;;14.33;68.71;98589.25;4987962;28;20629;-77
2022/03/28 10:53:44;;;;;;;41.83;20.80;;;13.90;93.10;;;14.46;68.02;98587.50;4986050;28;20509;-77
2022/03/28 10:56:20;;;;;;;14.43;7.70;;;14.10;92.80;;;14.57;67.30;98584.31;4991627;28;20866;-78
2022/03/28 10:58:54;;;;;;;13.30;6.70;;;14.10;92.90;;;14.61;68.30;98569.72;4999352;28;20667;-77
2022/03/28 11:01:34;;;;;;;12.00;6.50;;;14.20;93.10;;;14.67;67.63;98562.03;4996057;28;21079;-77
2022/03/28 11:04:19;;;;;;;22.30;6.60;;;14.20;93.00;;;14.79;65.20;98573.59;4999422;28;20521;-78
2022/03/28 11:07:04;;;;;;;13.00;6.87;;;14.20;91.90;;;14.85;63.75;98562.28;5000379;28;20517;-78
2022/03/28 11:09:47;;;;;;;13.67;6.30;;;14.40;91.90;;;14.98;62.09;98557.00;5001141;28;20837;-77
2022/03/28 11:12:22;;;;;;;13.30;7.00;;;14.60;91.30;;;15.08;60.90;98557.41;4995432;28;20557;-77
2022/03/28 11:15:01;;;;;;;13.17;6.23;;;14.60;90.50;;;15.13;61.78;98547.88;4999922;28;20470;-77
2022/03/28 11:17:36;;;;;;;8.63;5.33;;;14.70;91.40;;;15.20;61.83;98542.63;4991132;28;20493;-81
2022/03/28 11:20:18;;;;;;;11.67;6.47;;;14.80;91.30;;;15.31;61.14;98539.34;4998713;28;20482;-79